Howard City, MI (49329)

9:18 PM EST on January 20, 2017 (GMT -0500)
Smits Residence | | Change Station

Elev 925 ft 43.40 °N, 85.40 °W | Updated 11 seconds ago

Overcast
Overcast
33.0 °F
Feels Like 33 °F
N
0.0
Wind Variable Wind from SW

Today
High -- | Low -- °F
--% Chance of Precip.
Yesterday
High -- | Low -- °F
Precip. -- in
Pressure 29.70 in
Visibility 4.0 miles
Clouds Overcast 400 ft
Windchill 33 °F
Dew Point 32 °F
Humidity 98%
Rainfall 0.07 in
Snow Depth Not available.
8:08 AM 5:38 PM
Last Quarter, 39% visible
METAR KRQB 210214Z AUTO 20003KT 4SM BR OVC004 00/00 A2970 RMK AO2 T00040000
Pressure 29.70 in
Visibility 4.0 miles
Clouds Overcast 400 ft
Windchill 33 °F
Dew Point 32 °F
Humidity 98%
Rainfall 0.07 in
Snow Depth Not available.
8:08 AM 5:38 PM
Last Quarter, 39% visible
METAR KRQB 210214Z AUTO 20003KT 4SM BR OVC004 00/00 A2970 RMK AO2 T00040000

Get Your Daily Forecast Email!

Thanks for signing up!

Be on the lookout for a verification email in your inbox.

You'll start receiving the daily forecast at 8 AM.

×

10-Day Weather Forecast

Almanac

Astronomy

Jan. 20, 2017 Rise Set
Actual Time
Civil Twilight
Nautical Twilight
Astronomical Twilight
Moon
Length of Visible Light
Length of Day
Tomorrow will be .
, % of the Moon is Illuminated

Today's Extremes

State Highs State Lows

Community

WunderPhotos

Upload Photos

1,962,540 photos uploaded!

WunderBlog® & News

Nearby

Air Quality

  Air Quality AQ Index Pollutant
Not available.

Snow Depth

Station Depth Elevation

Earthquake Activity

City Distance Mag. Time & Date
Minimum magnitude displayed is 2.5.

Coastal Water Temperatures

Place Temperature

Stations

Nearby Weather Stations

Station Location Temp. Windchill Dew Point Humidity Wind Precip. Elev Updated Type
                   

Watches & Warnings

Dense Fog Advisory
Issued: 8:42 PM EST Jan. 20, 2017 – National Weather Service

... Dense fog advisory remains in effect until 10 am EST
Saturday...

Hazardous weather...

* dense fog developing this evening... lasting overnight

* visibilities will be near or less than one-quarter mile.

* Fog will slowly disipate through Saturday morning.

Impacts...

* hazardous driving conditions in reduced visibilities.

Precautionary/preparedness actions...

* if driving... slow down... use low beam headlights... and leave
   plenty of distance ahead of you.





Marine Fog Advisory
Issued: 8:43 PM EST Jan. 20, 2017 – National Weather Service

... Dense fog advisory remains in effect until 10 am EST
Saturday...

* visibility... one quarter mile or less.

* Timing... developing this evening... lasting overnight.

Precautionary/preparedness actions...

* inexperienced mariners... especially those operating smaller
vessels... should avoid navigating in these conditions.